sensor_id;sensor_type;location;lat;lon;timestamp;pressure;altitude;pressure_sealevel;temperature;humidity
23659;BME280;12006;42.666;23.326;2023-05-03T00:02:09;-17201.50;;;13.92;69.44
23659;BME280;12006;42.666;23.326;2023-05-03T00:04:37;-17200.69;;;13.89;69.16
23659;BME280;12006;42.666;23.326;2023-05-03T00:07:02;-17199.56;;;13.84;69.52
23659;BME280;12006;42.666;23.326;2023-05-03T00:09:28;-17200.47;;;13.88;69.43
23659;BME280;12006;42.666;23.326;2023-05-03T00:11:54;-16878.13;;;13.81;68.53
23659;BME280;12006;42.666;23.326;2023-05-03T00:14:19;-16876.00;;;13.71;67.36
23659;BME280;12006;42.666;23.326;2023-05-03T00:16:45;-16877.13;;;13.76;68.25
23659;BME280;12006;42.666;23.326;2023-05-03T00:19:10;-16555.28;;;13.71;67.91
23659;BME280;12006;42.666;23.326;2023-05-03T00:21:35;-16554.84;;;13.69;67.88
23659;BME280;12006;42.666;23.326;2023-05-03T00:24:01;-16553.97;;;13.65;67.57
23659;BME280;12006;42.666;23.326;2023-05-03T00:26:26;-16553.97;;;13.65;67.24
23659;BME280;12006;42.666;23.326;2023-05-03T00:28:52;-16553.44;;;13.63;67.06
23659;BME280;12006;42.666;23.326;2023-05-03T00:31:18;-16551.56;;;13.54;67.96
23659;BME280;12006;42.666;23.326;2023-05-03T00:33:43;-16552.00;;;13.56;68.84
23659;BME280;12006;42.666;23.326;2023-05-03T00:36:13;-16229.94;;;13.50;68.59
23659;BME280;12006;42.666;23.326;2023-05-03T00:38:40;-16551.56;;;13.54;69.31
23659;BME280;12006;42.666;23.326;2023-05-03T00:41:07;-16230.16;;;13.51;69.28
23659;BME280;12006;42.666;23.326;2023-05-03T00:43:33;-16551.34;;;13.53;68.82
23659;BME280;12006;42.666;23.326;2023-05-03T00:46:00;-16228.56;;;13.43;68.61
23659;BME280;12006;42.666;23.326;2023-05-03T00:48:27;-15906.91;;;13.38;67.82
23659;BME280;12006;42.666;23.326;2023-05-03T00:50:53;-15906.47;;;13.36;67.95
23659;BME280;12006;42.666;23.326;2023-05-03T00:53:20;-15905.03;;;13.30;68.17
23659;BME280;12006;42.666;23.326;2023-05-03T00:55:47;-15905.53;;;13.32;69.01
23659;BME280;12006;42.666;23.326;2023-05-03T00:58:16;-15905.84;;;13.33;68.99
23659;BME280;12006;42.666;23.326;2023-05-03T01:00:41;-15904.81;;;13.29;67.63
23659;BME280;12006;42.666;23.326;2023-05-03T01:03:07;-15904.81;;;13.29;67.94
23659;BME280;12006;42.666;23.326;2023-05-03T01:06:06;-15905.03;;;13.30;68.43
23659;BME280;12006;42.666;23.326;2023-05-03T01:09:36;-15582.00;;;13.18;68.29
23659;BME280;12006;42.666;23.326;2023-05-03T01:11:44;-15582.09;;;13.18;68.31
23659;BME280;12006;42.666;23.326;2023-05-03T01:17:05;-15259.88;;;13.10;69.10
23659;BME280;12006;42.666;23.326;2023-05-03T01:19:37;-14936.66;;;12.96;68.95
23659;BME280;12006;42.666;23.326;2023-05-03T01:22:25;-15257.91;;;13.00;69.67
23659;BME280;12006;42.666;23.326;2023-05-03T01:25:00;-14935.78;;;12.91;69.13
23659;BME280;12006;42.666;23.326;2023-05-03T01:27:31;-15257.31;;;12.97;69.94
23659;BME280;12006;42.666;23.326;2023-05-03T01:29:57;-15257.81;;;12.99;70.37
23659;BME280;12006;42.666;23.326;2023-05-03T01:32:31;-14934.91;;;12.87;70.03
23659;BME280;12006;42.666;23.326;2023-05-03T01:35:10;-14934.53;;;12.85;70.46
23659;BME280;12006;42.666;23.326;2023-05-03T01:37:36;-14934.34;;;12.84;69.99
23659;BME280;12006;42.666;23.326;2023-05-03T01:40:03;-14934.25;;;12.83;70.39
23659;BME280;12006;42.666;23.326;2023-05-03T01:42:34;-14933.09;;;12.77;70.13
23659;BME280;12006;42.666;23.326;2023-05-03T01:45:02;-14611.47;;;12.71;71.97
23659;BME280;12006;42.666;23.326;2023-05-03T01:47:28;-14931.66;;;12.70;72.36
23659;BME280;12006;42.666;23.326;2023-05-03T01:49:53;-14610.72;;;12.67;71.47
23659;BME280;12006;42.666;23.326;2023-05-03T01:52:19;-14610.91;;;12.68;73.51
23659;BME280;12006;42.666;23.326;2023-05-03T01:54:44;-14932.22;;;12.73;73.17
23659;BME280;12006;42.666;23.326;2023-05-03T01:57:10;-14609.59;;;12.61;72.71
23659;BME280;12006;42.666;23.326;2023-05-03T01:59:35;-14610.16;;;12.64;72.88
23659;BME280;12006;42.666;23.326;2023-05-03T02:02:00;-14608.47;;;12.55;74.10
23659;BME280;12006;42.666;23.326;2023-05-03T02:04:26;-14609.31;;;12.60;72.92
23659;BME280;12006;42.666;23.326;2023-05-03T02:06:51;-14608.66;;;12.56;74.48
23659;BME280;12006;42.666;23.326;2023-05-03T02:09:17;-14286.19;;;12.44;75.15
23659;BME280;12006;42.666;23.326;2023-05-03T02:11:42;-14605.13;;;12.37;74.71
23659;BME280;12006;42.666;23.326;2023-05-03T02:14:08;-14286.19;;;12.44;74.81
23659;BME280;12006;42.666;23.326;2023-05-03T02:16:33;-14285.72;;;12.42;75.95
23659;BME280;12006;42.666;23.326;2023-05-03T02:18:59;-14285.34;;;12.40;74.37
23659;BME280;12006;42.666;23.326;2023-05-03T02:21:25;-14285.34;;;12.40;74.93
23659;BME280;12006;42.666;23.326;2023-05-03T02:23:51;-14285.34;;;12.40;74.28
23659;BME280;12006;42.666;23.326;2023-05-03T02:26:18;-14285.53;;;12.41;74.42
23659;BME280;12006;42.666;23.326;2023-05-03T02:28:43;-14285.28;;;12.39;75.12
23659;BME280;12006;42.666;23.326;2023-05-03T02:31:08;-14284.72;;;12.36;76.63
23659;BME280;12006;42.666;23.326;2023-05-03T02:33:34;-13963.25;;;12.29;75.92
23659;BME280;12006;42.666;23.326;2023-05-03T02:35:59;-13962.91;;;12.27;74.92
23659;BME280;12006;42.666;23.326;2023-05-03T02:38:25;-13961.75;;;12.21;77.01
23659;BME280;12006;42.666;23.326;2023-05-03T02:40:50;-13962.19;;;12.23;76.54
23659;BME280;12006;42.666;23.326;2023-05-03T02:43:16;-13962.19;;;12.23;76.94
23659;BME280;12006;42.666;23.326;2023-05-03T02:45:42;-13963.25;;;12.29;76.82
23659;BME280;12006;42.666;23.326;2023-05-03T02:48:08;-14283.72;;;12.31;77.01
23659;BME280;12006;42.666;23.326;2023-05-03T02:50:34;-14283.63;;;12.30;76.87
23659;BME280;12006;42.666;23.326;2023-05-03T02:52:59;-14284.91;;;12.37;77.78
23659;BME280;12006;42.666;23.326;2023-05-03T02:55:25;-14284.53;;;12.35;77.04
23659;BME280;12006;42.666;23.326;2023-05-03T02:57:50;-14606.16;;;12.43;77.53
23659;BME280;12006;42.666;23.326;2023-05-03T03:00:16;-14284.63;;;12.36;76.26
23659;BME280;12006;42.666;23.326;2023-05-03T03:02:41;-14284.19;;;12.33;77.82
23659;BME280;12006;42.666;23.326;2023-05-03T03:05:07;-14606.06;;;12.42;78.16
23659;BME280;12006;42.666;23.326;2023-05-03T03:07:33;-14605.13;;;12.37;78.64
23659;BME280;12006;42.666;23.326;2023-05-03T03:09:58;-14606.16;;;12.43;77.32
23659;BME280;12006;42.666;23.326;2023-05-03T03:12:24;-14284.34;;;12.34;78.56
23659;BME280;12006;42.666;23.326;2023-05-03T03:14:51;-14282.91;;;12.26;78.47
23659;BME280;12006;42.666;23.326;2023-05-03T03:17:17;-14282.91;;;12.26;78.25
23659;BME280;12006;42.666;23.326;2023-05-03T03:19:42;-13962.00;;;12.22;77.34
23659;BME280;12006;42.666;23.326;2023-05-03T03:22:08;-14282.91;;;12.26;79.10
23659;BME280;12006;42.666;23.326;2023-05-03T03:24:34;-14282.81;;;12.26;78.61
23659;BME280;12006;42.666;23.326;2023-05-03T03:26:59;-14282.19;;;12.22;78.40
23659;BME280;12006;42.666;23.326;2023-05-03T03:29:25;-13961.41;;;12.19;78.80
23659;BME280;12006;42.666;23.326;2023-05-03T03:31:52;-13960.59;;;12.14;78.64
23659;BME280;12006;42.666;23.326;2023-05-03T03:34:17;-14282.25;;;12.23;79.68
23659;BME280;12006;42.666;23.326;2023-05-03T03:36:42;-14281.34;;;12.18;78.67
23659;BME280;12006;42.666;23.326;2023-05-03T03:39:08;-14283.44;;;12.29;79.82
23659;BME280;12006;42.666;23.326;2023-05-03T03:41:34;-14282.91;;;12.26;78.37
23659;BME280;12006;42.666;23.326;2023-05-03T03:44:00;-14283.81;;;12.31;80.15
23659;BME280;12006;42.666;23.326;2023-05-03T03:46:25;-14284.09;;;12.33;79.18
23659;BME280;12006;42.666;23.326;2023-05-03T03:48:50;-14284.00;;;12.32;79.23
23659;BME280;12006;42.666;23.326;2023-05-03T03:51:16;-14604.56;;;12.34;78.29
23659;BME280;12006;42.666;23.326;2023-05-03T03:53:41;-14283.81;;;12.31;79.11
23659;BME280;12006;42.666;23.326;2023-05-03T03:56:07;-14282.72;;;12.25;78.94
23659;BME280;12006;42.666;23.326;2023-05-03T03:58:32;-13961.84;;;12.21;77.17
23659;BME280;12006;42.666;23.326;2023-05-03T04:00:58;-13961.31;;;12.18;77.01
23659;BME280;12006;42.666;23.326;2023-05-03T04:03:25;-14282.00;;;12.21;79.27
23659;BME280;12006;42.666;23.326;2023-05-03T04:05:50;-14282.81;;;12.26;78.78
23659;BME280;12006;42.666;23.326;2023-05-03T04:08:16;-14282.34;;;12.23;80.02
23659;BME280;12006;42.666;23.326;2023-05-03T04:10:41;-14282.72;;;12.25;78.77
23659;BME280;12006;42.666;23.326;2023-05-03T04:13:07;-14283.63;;;12.30;79.25
23659;BME280;12006;42.666;23.326;2023-05-03T04:15:32;-14283.19;;;12.28;79.57
23659;BME280;12006;42.666;23.326;2023-05-03T04:17:58;-14282.72;;;12.25;79.44
23659;BME280;12006;42.666;23.326;2023-05-03T04:20:23;-14604.56;;;12.34;79.76
23659;BME280;12006;42.666;23.326;2023-05-03T04:22:49;-14603.81;;;12.30;78.97
23659;BME280;12006;42.666;23.326;2023-05-03T04:25:14;-14605.41;;;12.39;79.70
23659;BME280;12006;42.666;23.326;2023-05-03T04:27:41;-14605.50;;;12.39;78.80
23659;BME280;12006;42.666;23.326;2023-05-03T04:30:07;-14605.59;;;12.40;80.49
23659;BME280;12006;42.666;23.326;2023-05-03T04:32:34;-14604.19;;;12.32;80.68
23659;BME280;12006;42.666;23.326;2023-05-03T04:35:03;-14603.25;;;12.27;80.30
23659;BME280;12006;42.666;23.326;2023-05-03T04:37:33;-14604.84;;;12.36;81.08
23659;BME280;12006;42.666;23.326;2023-05-03T04:39:59;-14603.81;;;12.30;80.58
23659;BME280;12006;42.666;23.326;2023-05-03T04:42:24;-14603.25;;;12.27;81.09
23659;BME280;12006;42.666;23.326;2023-05-03T04:44:51;-14604.94;;;12.36;80.42
23659;BME280;12006;42.666;23.326;2023-05-03T04:47:16;-14604.28;;;12.33;79.96
23659;BME280;12006;42.666;23.326;2023-05-03T04:49:42;-14605.69;;;12.40;79.96
23659;BME280;12006;42.666;23.326;2023-05-03T04:52:08;-14604.47;;;12.34;81.04
23659;BME280;12006;42.666;23.326;2023-05-03T04:54:34;-14925.88;;;12.40;82.31
23659;BME280;12006;42.666;23.326;2023-05-03T04:57:00;-14604.38;;;12.33;82.44
23659;BME280;12006;42.666;23.326;2023-05-03T04:59:25;-14604.66;;;12.35;81.75
23659;BME280;12006;42.666;23.326;2023-05-03T05:01:51;-14924.53;;;12.33;82.64
23659;BME280;12006;42.666;23.326;2023-05-03T05:04:16;-14923.56;;;12.28;85.25
23659;BME280;12006;42.666;23.326;2023-05-03T05:06:42;-14923.19;;;12.26;89.35
23659;BME280;12006;42.666;23.326;2023-05-03T05:09:19;-15561.94;;;12.19;94.76
23659;BME280;12006;42.666;23.326;2023-05-03T05:11:45;-15880.69;;;12.13;100.00
23659;BME280;12006;42.666;23.326;2023-05-03T05:14:11;-15557.69;;;11.99;100.00
23659;BME280;12006;42.666;23.326;2023-05-03T05:16:36;-16195.31;;;11.89;100.00
23659;BME280;12006;42.666;23.326;2023-05-03T05:19:02;-16197.66;;;12.00;100.00
23659;BME280;12006;42.666;23.326;2023-05-03T05:21:28;-15877.78;;;12.00;100.00
23659;BME280;12006;42.666;23.326;2023-05-03T05:23:53;-15877.16;;;11.97;99.97
23659;BME280;12006;42.666;23.326;2023-05-03T05:26:19;-16199.06;;;12.06;100.00
23659;BME280;12006;42.666;23.326;2023-05-03T05:28:44;-16200.75;;;12.14;100.00
23659;BME280;12006;42.666;23.326;2023-05-03T05:31:09;-16523.53;;;12.27;99.08
23659;BME280;12006;42.666;23.326;2023-05-03T05:33:35;-16525.50;;;12.36;98.47
23659;BME280;12006;42.666;23.326;2023-05-03T05:36:01;-16525.38;;;12.35;97.99
23659;BME280;12006;42.666;23.326;2023-05-03T05:38:26;-16526.38;;;12.40;96.68
23659;BME280;12006;42.666;23.326;2023-05-03T05:40:52;-16529.53;;;12.54;93.97
23659;BME280;12006;42.666;23.326;2023-05-03T05:43:17;-16530.28;;;12.58;93.50
23659;BME280;12006;42.666;23.326;2023-05-03T05:45:43;-16853.66;;;12.72;93.09
23659;BME280;12006;42.666;23.326;2023-05-03T05:48:08;-16855.13;;;12.78;91.95
23659;BME280;12006;42.666;23.326;2023-05-03T05:50:33;-17176.03;;;12.81;92.61
23659;BME280;12006;42.666;23.326;2023-05-03T05:52:59;-17177.06;;;12.86;92.61
23659;BME280;12006;42.666;23.326;2023-05-03T05:55:26;-17177.41;;;12.87;92.79
23659;BME280;12006;42.666;23.326;2023-05-03T05:57:51;-17498.44;;;12.91;94.54
23659;BME280;12006;42.666;23.326;2023-05-03T06:00:17;-17496.81;;;12.84;97.15
23659;BME280;12006;42.666;23.326;2023-05-03T06:02:43;-17175.34;;;12.78;97.15
23659;BME280;12006;42.666;23.326;2023-05-03T06:05:10;-17172.81;;;12.68;96.92
23659;BME280;12006;42.666;23.326;2023-05-03T06:07:36;-17174.75;;;12.76;94.75
23659;BME280;12006;42.666;23.326;2023-05-03T06:10:02;-17173.16;;;12.69;93.94
23659;BME280;12006;42.666;23.326;2023-05-03T06:12:28;-17172.25;;;12.65;96.12
23659;BME280;12006;42.666;23.326;2023-05-03T06:14:54;-17168.69;;;12.50;99.23
23659;BME280;12006;42.666;23.326;2023-05-03T06:17:19;-17491.66;;;12.62;100.00
23659;BME280;12006;42.666;23.326;2023-05-03T06:19:47;-17812.94;;;12.67;100.00
23659;BME280;12006;42.666;23.326;2023-05-03T06:22:14;-17812.56;;;12.66;100.00
23659;BME280;12006;42.666;23.326;2023-05-03T06:24:39;-18134.97;;;12.75;100.00
23659;BME280;12006;42.666;23.326;2023-05-03T06:27:05;-18138.00;;;12.87;100.00
23659;BME280;12006;42.666;23.326;2023-05-03T06:29:30;-17816.03;;;12.80;100.00
23659;BME280;12006;42.666;23.326;2023-05-03T06:31:56;-17816.28;;;12.81;100.00
23659;BME280;12006;42.666;23.326;2023-05-03T06:34:21;-18136.91;;;12.83;100.00
23659;BME280;12006;42.666;23.326;2023-05-03T06:36:47;-18462.28;;;13.04;100.00
23659;BME280;12006;42.666;23.326;2023-05-03T06:39:13;-18463.28;;;13.08;100.00
23659;BME280;12006;42.666;23.326;2023-05-03T06:41:38;-18465.03;;;13.15;97.99
23659;BME280;12006;42.666;23.326;2023-05-03T06:44:04;-18142.78;;;13.07;99.15
23659;BME280;12006;42.666;23.326;2023-05-03T06:46:31;-18144.47;;;13.14;96.35
23659;BME280;12006;42.666;23.326;2023-05-03T06:48:56;-17820.81;;;13.00;94.63
23659;BME280;12006;42.666;23.326;2023-05-03T06:51:23;-17820.22;;;12.97;94.54
23659;BME280;12006;42.666;23.326;2023-05-03T06:53:53;-18143.13;;;13.08;96.50
23659;BME280;12006;42.666;23.326;2023-05-03T06:56:19;-17819.63;;;12.95;94.99
23659;BME280;12006;42.666;23.326;2023-05-03T06:58:45;-17818.06;;;12.88;97.23
23659;BME280;12006;42.666;23.326;2023-05-03T07:01:10;-18142.28;;;13.05;95.63
23659;BME280;12006;42.666;23.326;2023-05-03T07:03:36;-18143.00;;;13.08;95.59
23659;BME280;12006;42.666;23.326;2023-05-03T07:06:02;-18145.94;;;13.20;94.11
23659;BME280;12006;42.666;23.326;2023-05-03T07:08:28;-18145.22;;;13.17;94.10
23659;BME280;12006;42.666;23.326;2023-05-03T07:10:53;-18148.16;;;13.29;94.81
23659;BME280;12006;42.666;23.326;2023-05-03T07:13:19;-18470.38;;;13.36;94.10
23659;BME280;12006;42.666;23.326;2023-05-03T07:15:44;-18470.63;;;13.37;94.25
23659;BME280;12006;42.666;23.326;2023-05-03T07:18:10;-18471.75;;;13.41;94.27
23659;BME280;12006;42.666;23.326;2023-05-03T07:20:35;-18473.00;;;13.46;92.70
23659;BME280;12006;42.666;23.326;2023-05-03T07:23:01;-18795.97;;;13.56;92.78
23659;BME280;12006;42.666;23.326;2023-05-03T07:25:26;-18471.63;;;13.41;92.32
23659;BME280;12006;42.666;23.326;2023-05-03T07:27:51;-18795.09;;;13.53;93.73
23659;BME280;12006;42.666;23.326;2023-05-03T07:30:17;-19121.75;;;13.77;92.03
23659;BME280;12006;42.666;23.326;2023-05-03T07:32:43;-19120.34;;;13.71;92.41
23659;BME280;12006;42.666;23.326;2023-05-03T07:35:08;-19119.03;;;13.66;92.13
23659;BME280;12006;42.666;23.326;2023-05-03T07:37:34;-19121.50;;;13.76;92.25
23659;BME280;12006;42.666;23.326;2023-05-03T07:39:59;-19122.81;;;13.81;92.45
23659;BME280;12006;42.666;23.326;2023-05-03T07:42:25;-19120.59;;;13.72;93.34
23659;BME280;12006;42.666;23.326;2023-05-03T07:44:51;-19122.16;;;13.78;93.05
23659;BME280;12006;42.666;23.326;2023-05-03T07:47:16;-19443.75;;;13.82;93.57
23659;BME280;12006;42.666;23.326;2023-05-03T07:49:42;-19121.75;;;13.77;93.75
23659;BME280;12006;42.666;23.326;2023-05-03T07:52:08;-19446.94;;;13.94;93.01
23659;BME280;12006;42.666;23.326;2023-05-03T07:54:33;-19770.63;;;14.05;93.91
23659;BME280;12006;42.666;23.326;2023-05-03T07:56:59;-19772.41;;;14.12;92.01
23659;BME280;12006;42.666;23.326;2023-05-03T07:59:25;-19773.47;;;14.16;91.32
23659;BME280;12006;42.666;23.326;2023-05-03T08:01:50;-20095.28;;;14.20;91.96
23659;BME280;12006;42.666;23.326;2023-05-03T08:04:16;-20096.66;;;14.25;92.72
23659;BME280;12006;42.666;23.326;2023-05-03T08:06:42;-20099.13;;;14.34;93.02
23659;BME280;12006;42.666;23.326;2023-05-03T08:09:07;-20427.03;;;14.59;91.07
23659;BME280;12006;42.666;23.326;2023-05-03T08:11:33;-20424.63;;;14.51;91.99
23659;BME280;12006;42.666;23.326;2023-05-03T08:13:59;-20421.56;;;14.40;92.28
23659;BME280;12006;42.666;23.326;2023-05-03T08:16:24;-20425.19;;;14.53;92.16
23659;BME280;12006;42.666;23.326;2023-05-03T08:18:50;-20428.28;;;14.63;91.79
23659;BME280;12006;42.666;23.326;2023-05-03T08:21:15;-21079.03;;;14.94;90.47
23659;BME280;12006;42.666;23.326;2023-05-03T08:23:41;-21083.09;;;15.08;87.80
23659;BME280;12006;42.666;23.326;2023-05-03T08:26:07;-21083.09;;;15.08;88.71
23659;BME280;12006;42.666;23.326;2023-05-03T08:28:33;-21410.38;;;15.29;88.72
23659;BME280;12006;42.666;23.326;2023-05-03T08:30:59;-21737.53;;;15.49;86.84
23659;BME280;12006;42.666;23.326;2023-05-03T08:33:27;-21736.19;;;15.44;88.43
23659;BME280;12006;42.666;23.326;2023-05-03T08:35:53;-21413.47;;;15.39;87.23
23659;BME280;12006;42.666;23.326;2023-05-03T08:38:18;-21741.75;;;15.63;87.48
23659;BME280;12006;42.666;23.326;2023-05-03T08:40:47;-22069.94;;;15.85;85.22
23659;BME280;12006;42.666;23.326;2023-05-03T08:43:16;-22069.16;;;15.82;84.84
23659;BME280;12006;42.666;23.326;2023-05-03T08:45:44;-22067.03;;;15.76;84.90
23659;BME280;12006;42.666;23.326;2023-05-03T08:48:09;-21742.06;;;15.64;86.56
23659;BME280;12006;42.666;23.326;2023-05-03T08:50:35;-22393.50;;;15.92;87.68
23659;BME280;12006;42.666;23.326;2023-05-03T08:53:07;-22072.38;;;15.93;85.77
23659;BME280;12006;42.666;23.326;2023-05-03T08:55:33;-22071.47;;;15.90;86.07
23659;BME280;12006;42.666;23.326;2023-05-03T08:57:59;-22071.31;;;15.89;86.11
23659;BME280;12006;42.666;23.326;2023-05-03T09:00:27;-22399.88;;;16.12;85.30
23659;BME280;12006;42.666;23.326;2023-05-03T09:02:54;-22395.84;;;15.99;85.58
23659;BME280;12006;42.666;23.326;2023-05-03T09:08:11;-22403.13;;;16.23;84.81
23659;BME280;12006;42.666;23.326;2023-05-03T09:10:41;-22405.00;;;16.29;83.49
23659;BME280;12006;42.666;23.326;2023-05-03T09:13:08;-22736.41;;;16.59;83.24
23659;BME280;12006;42.666;23.326;2023-05-03T09:15:34;-23069.38;;;16.94;81.62
23659;BME280;12006;42.666;23.326;2023-05-03T09:20:34;-23403.66;;;17.32;77.79
23659;BME280;12006;42.666;23.326;2023-05-03T09:23:01;-23401.53;;;17.25;76.95
23659;BME280;12006;42.666;23.326;2023-05-03T09:25:43;-23403.16;;;17.30;77.30
23659;BME280;12006;42.666;23.326;2023-05-03T09:28:10;-23733.66;;;17.56;77.32
23659;BME280;12006;42.666;23.326;2023-05-03T09:30:35;-23738.13;;;17.69;76.90
23659;BME280;12006;42.666;23.326;2023-05-03T09:33:01;-23741.78;;;17.80;75.86
23659;BME280;12006;42.666;23.326;2023-05-03T09:35:26;-23746.91;;;17.95;74.43
23659;BME280;12006;42.666;23.326;2023-05-03T09:37:53;-24077.50;;;18.20;73.97
23659;BME280;12006;42.666;23.326;2023-05-03T09:40:18;-24085.41;;;18.43;72.96
23659;BME280;12006;42.666;23.326;2023-05-03T09:45:37;-24082.22;;;18.33;75.23
23659;BME280;12006;42.666;23.326;2023-05-03T09:48:05;-24417.38;;;18.70;72.92
23659;BME280;12006;42.666;23.326;2023-05-03T09:50:32;-24431.56;;;19.11;71.95
23659;BME280;12006;42.666;23.326;2023-05-03T09:53:03;-24420.81;;;18.80;71.46
23659;BME280;12006;42.666;23.326;2023-05-03T09:55:46;-24427.47;;;18.99;72.10
23659;BME280;12006;42.666;23.326;2023-05-03T09:58:17;-24430.53;;;19.08;71.26
23659;BME280;12006;42.666;23.326;2023-05-03T10:00:43;-24429.69;;;19.06;71.38
23659;BME280;12006;42.666;23.326;2023-05-03T10:03:11;-24429.69;;;19.06;71.12
23659;BME280;12006;42.666;23.326;2023-05-03T10:05:45;-24423.38;;;18.87;71.03
23659;BME280;12006;42.666;23.326;2023-05-03T10:08:18;-24418.06;;;18.72;73.03
23659;BME280;12006;42.666;23.326;2023-05-03T10:10:48;-24086.44;;;18.46;71.97
23659;BME280;12006;42.666;23.326;2023-05-03T10:13:20;-24085.41;;;18.43;71.60
23659;BME280;12006;42.666;23.326;2023-05-03T10:15:50;-24086.59;;;18.46;71.73
23659;BME280;12006;42.666;23.326;2023-05-03T10:18:19;-24418.06;;;18.72;72.69
23659;BME280;12006;42.666;23.326;2023-05-03T10:20:55;-24432.09;;;19.13;72.81
23659;BME280;12006;42.666;23.326;2023-05-03T10:23:23;-24431.06;;;19.10;73.01
23659;BME280;12006;42.666;23.326;2023-05-03T10:28:34;-24423.19;;;18.87;72.93
23659;BME280;12006;42.666;23.326;2023-05-03T10:31:01;-24421.16;;;18.81;73.43
23659;BME280;12006;42.666;23.326;2023-05-03T10:33:31;-24427.13;;;18.98;72.62
23659;BME280;12006;42.666;23.326;2023-05-03T10:36:04;-24435.84;;;19.24;72.80
23659;BME280;12006;42.666;23.326;2023-05-03T10:38:29;-24430.53;;;19.08;72.33
23659;BME280;12006;42.666;23.326;2023-05-03T10:40:57;-24424.03;;;18.89;72.38
23659;BME280;12006;42.666;23.326;2023-05-03T10:46:03;-24430.03;;;19.07;73.48
23659;BME280;12006;42.666;23.326;2023-05-03T10:48:29;-24446.59;;;19.49;71.82
23659;BME280;12006;42.666;23.326;2023-05-03T10:50:56;-24446.25;;;19.48;70.55
23659;BME280;12006;42.666;23.326;2023-05-03T10:53:39;-24451.72;;;19.64;69.89
23659;BME280;12006;42.666;23.326;2023-05-03T10:56:10;-24434.31;;;19.19;71.10
23659;BME280;12006;42.666;23.326;2023-05-03T10:58:46;-24430.72;;;19.09;71.97
23659;BME280;12006;42.666;23.326;2023-05-03T11:01:14;-24429.88;;;19.06;72.92
23659;BME280;12006;42.666;23.326;2023-05-03T11:06:08;-24427.28;;;18.99;74.31
23659;BME280;12006;42.666;23.326;2023-05-03T11:08:34;-24425.94;;;18.95;74.04
23659;BME280;12006;42.666;23.326;2023-05-03T11:11:02;-24432.75;;;19.15;74.61
23659;BME280;12006;42.666;23.326;2023-05-03T11:13:37;-24443.38;;;19.40;71.82
23659;BME280;12006;42.666;23.326;2023-05-03T11:16:03;-24450.19;;;19.60;70.63
23659;BME280;12006;42.666;23.326;2023-05-03T11:18:32;-24461.63;;;19.93;69.14
23659;BME280;12006;42.666;23.326;2023-05-03T11:20:58;-24464.88;;;20.03;68.80
23659;BME280;12006;42.666;23.326;2023-05-03T11:23:26;-24467.44;;;20.10;68.08
23659;BME280;12006;42.666;23.326;2023-05-03T11:25:52;-24465.72;;;20.05;67.77
23659;BME280;12006;42.666;23.326;2023-05-03T11:28:17;-24473.75;;;20.28;68.16
23659;BME280;12006;42.666;23.326;2023-05-03T11:30:45;-24474.59;;;20.31;67.19
23659;BME280;12006;42.666;23.326;2023-05-03T11:33:10;-24477.31;;;20.39;68.80
23659;BME280;12006;42.666;23.326;2023-05-03T11:35:36;-24469.47;;;20.16;67.75
23659;BME280;12006;42.666;23.326;2023-05-03T11:38:02;-24472.53;;;20.25;68.44
23659;BME280;12006;42.666;23.326;2023-05-03T11:40:27;-24475.28;;;20.33;67.88
23659;BME280;12006;42.666;23.326;2023-05-03T11:42:57;-24477.66;;;20.40;68.24
23659;BME280;12006;42.666;23.326;2023-05-03T11:45:44;-24495.41;;;20.91;67.38
23659;BME280;12006;42.666;23.326;2023-05-03T11:48:11;-24507.34;;;21.26;66.01
23659;BME280;12006;42.666;23.326;2023-05-03T11:50:56;-24506.66;;;21.24;66.02
23659;BME280;12006;42.666;23.326;2023-05-03T11:53:25;-24496.78;;;20.95;67.21
23659;BME280;12006;42.666;23.326;2023-05-03T11:55:53;-24497.81;;;20.98;66.72
23659;BME280;12006;42.666;23.326;2023-05-03T11:58:24;-24487.56;;;20.69;68.09
23659;BME280;12006;42.666;23.326;2023-05-03T12:00:52;-24473.22;;;20.27;69.49
23659;BME280;12006;42.666;23.326;2023-05-03T12:03:19;-24476.13;;;20.35;70.12
23659;BME280;12006;42.666;23.326;2023-05-03T12:05:45;-24467.25;;;20.09;69.79
23659;BME280;12006;42.666;23.326;2023-05-03T12:08:12;-24459.91;;;19.88;70.42
23659;BME280;12006;42.666;23.326;2023-05-03T12:10:37;-24455.13;;;19.74;71.63
23659;BME280;12006;42.666;23.326;2023-05-03T12:13:03;-24451.03;;;19.62;72.25
23659;BME280;12006;42.666;23.326;2023-05-03T12:15:33;-24438.41;;;19.26;73.98
23659;BME280;12006;42.666;23.326;2023-05-03T12:18:01;-24447.47;;;19.52;73.20
23659;BME280;12006;42.666;23.326;2023-05-03T12:20:28;-24435.84;;;19.24;73.21
23659;BME280;12006;42.666;23.326;2023-05-03T12:23:00;-24423.88;;;18.89;75.33
23659;BME280;12006;42.666;23.326;2023-05-03T12:25:28;-24419.59;;;18.77;76.13
23659;BME280;12006;42.666;23.326;2023-05-03T12:27:55;-24406.81;;;18.39;78.32
23659;BME280;12006;42.666;23.326;2023-05-03T12:30:22;-24078.84;;;18.24;81.02
23659;BME280;12006;42.666;23.326;2023-05-03T12:32:47;-24079.88;;;18.26;80.87
23659;BME280;12006;42.666;23.326;2023-05-03T12:35:12;-24077.84;;;18.21;81.95
23659;BME280;12006;42.666;23.326;2023-05-03T12:37:38;-24073.31;;;18.07;82.69
23659;BME280;12006;42.666;23.326;2023-05-03T12:40:04;-24061.53;;;17.72;85.26
23659;BME280;12006;42.666;23.326;2023-05-03T12:42:30;-24062.88;;;17.76;86.49
23659;BME280;12006;42.666;23.326;2023-05-03T12:44:58;-24064.03;;;17.80;87.56
23659;BME280;12006;42.666;23.326;2023-05-03T12:47:24;-24059.50;;;17.66;88.92
23659;BME280;12006;42.666;23.326;2023-05-03T12:49:51;-24059.00;;;17.65;89.96
23659;BME280;12006;42.666;23.326;2023-05-03T12:52:17;-23726.84;;;17.35;91.02
23659;BME280;12006;42.666;23.326;2023-05-03T12:54:42;-23726.69;;;17.35;92.40
23659;BME280;12006;42.666;23.326;2023-05-03T12:57:10;-23723.03;;;17.24;94.46
23659;BME280;12006;42.666;23.326;2023-05-03T12:59:37;-23718.41;;;17.10;98.17